createdAt,value
2022-09-11T00:00:54.276Z,100938.09
2022-09-11T00:03:58.564Z,100939.81
2022-09-11T00:07:01.114Z,100949.81
2022-09-11T00:10:03.819Z,100947.56
2022-09-11T00:13:07.332Z,100953.09
2022-09-11T00:16:20.565Z,100954.75
2022-09-11T00:19:24.564Z,100935.69
2022-09-11T00:22:28.173Z,100945.63
2022-09-11T00:25:30.774Z,100945.09
2022-09-11T00:28:34.543Z,100951.19
2022-09-11T00:31:37.370Z,100950.38
2022-09-11T00:34:41.477Z,100938.78
2022-09-11T00:37:44.115Z,100937.72
2022-09-11T00:40:47.693Z,100939.63
2022-09-11T00:43:54.402Z,100947.66
2022-09-11T00:46:59.505Z,100941.56
2022-09-11T00:50:11.013Z,100938.25
2022-09-11T00:53:17.950Z,100945.41
2022-09-11T00:56:21.829Z,100942.09
2022-09-11T00:59:27.091Z,100944.31
2022-09-11T01:02:32.754Z,100945.97
2022-09-11T01:05:39.317Z,100949.56
2022-09-11T01:08:42.222Z,100948.72
2022-09-11T01:11:51.972Z,100947.63
2022-09-11T01:15:01.660Z,100946.53
2022-09-11T01:18:10.540Z,100950.41
2022-09-11T01:21:38.789Z,100952.31
2022-09-11T01:24:57.305Z,100949.56
2022-09-11T01:28:06.345Z,100948.78
2022-09-11T01:31:13.004Z,100949.88
2022-09-11T01:34:22.859Z,100951.00
2022-09-11T01:37:32.149Z,100946.59
2022-09-11T01:40:41.592Z,100955.16
2022-09-11T01:43:51.332Z,100947.69
2022-09-11T01:46:54.909Z,100954.09
2022-09-11T01:50:03.566Z,100949.66
2022-09-11T01:53:09.775Z,100954.91
2022-09-11T01:56:17.922Z,100955.22
2022-09-11T01:59:27.999Z,100952.72
2022-09-11T02:02:36.144Z,100959.59
2022-09-11T02:05:45.926Z,100954.38
2022-09-11T02:08:54.288Z,100961.00
2022-09-11T02:12:03.694Z,100956.84
2022-09-11T02:15:09.137Z,100956.88
2022-09-11T02:18:19.175Z,100965.44
2022-09-11T02:21:22.082Z,100963.22
2022-09-11T02:24:24.866Z,100969.91
2022-09-11T02:27:28.698Z,100973.78
2022-09-11T02:30:32.863Z,100974.31
2022-09-11T02:33:36.998Z,100968.78
2022-09-11T02:36:57.549Z,100964.94
2022-09-11T02:40:19.566Z,100966.63
2022-09-11T02:43:39.022Z,100980.16
2022-09-11T02:46:56.880Z,100977.66
2022-09-11T02:50:09.990Z,100976.56
2022-09-11T02:53:20.325Z,100974.09
2022-09-11T02:56:32.568Z,100982.38
2022-09-11T02:59:40.919Z,100980.44
2022-09-11T03:02:45.411Z,100988.72
2022-09-11T03:05:48.857Z,100985.94
2022-09-11T03:08:52.479Z,100999.72
2022-09-11T03:11:55.100Z,100998.06
2022-09-11T03:14:58.529Z,101001.69
2022-09-11T03:18:05.129Z,101011.38
2022-09-11T03:21:07.812Z,101012.50
2022-09-11T03:24:10.851Z,101025.19
2022-09-11T03:27:14.323Z,101024.91
2022-09-11T03:30:17.142Z,101029.59
2022-09-11T03:33:21.179Z,101025.19
2022-09-11T03:36:23.805Z,101032.09
2022-09-11T03:39:26.486Z,101038.72
2022-09-11T03:42:29.150Z,101036.50
2022-09-11T03:45:32.370Z,101042.56
2022-09-11T03:48:36.467Z,101045.34
2022-09-11T03:51:39.084Z,101039.81
2022-09-11T03:54:42.271Z,101048.09
2022-09-11T03:57:44.825Z,101047.00
2022-09-11T04:00:47.984Z,101047.00
2022-09-11T04:03:52.047Z,101052.53
2022-09-11T04:06:54.579Z,101053.91
2022-09-11T04:09:57.331Z,101050.28
2022-09-11T04:13:00.103Z,101059.13
2022-09-11T04:16:04.842Z,101059.13
2022-09-11T04:19:10.631Z,101056.09
2022-09-11T04:22:13.321Z,101070.47
2022-09-11T04:25:16.186Z,101063.56
2022-09-11T04:28:18.774Z,101059.94
2022-09-11T04:31:22.424Z,101055.25
2022-09-11T04:34:26.572Z,101061.03
2022-09-11T04:37:29.375Z,101064.63
2022-09-11T04:40:33.291Z,101067.69
2022-09-11T04:43:38.112Z,101060.50
2022-09-11T04:46:41.057Z,101062.72
2022-09-11T04:49:46.874Z,101060.50
2022-09-11T04:52:49.534Z,101063.53
2022-09-11T04:55:52.180Z,101050.84
2022-09-11T04:58:56.888Z,101057.19
2022-09-11T05:01:59.991Z,101062.72
2022-09-11T05:05:04.452Z,101058.84
2022-09-11T05:08:08.236Z,101059.09
2022-09-11T05:11:13.528Z,101058.31
2022-09-11T05:14:16.149Z,101063.25
2022-09-11T05:17:18.897Z,101067.69
2022-09-11T05:20:22.931Z,101072.66
2022-09-11T05:23:25.719Z,101078.16
2022-09-11T05:26:31.088Z,101079.53
2022-09-11T05:29:33.657Z,101088.13
2022-09-11T05:32:36.340Z,101095.84
2022-09-11T05:35:40.778Z,101098.88
2022-09-11T05:38:43.989Z,101102.16
2022-09-11T05:41:46.682Z,101111.00
2022-09-11T05:44:49.365Z,101112.66
2022-09-11T05:47:55.933Z,101116.50
2022-09-11T05:51:02.141Z,101122.28
2022-09-11T05:54:05.419Z,101120.34
2022-09-11T05:57:08.170Z,101126.13
2022-09-11T06:00:13.259Z,101132.47
2022-09-11T06:03:16.374Z,101143.81
2022-09-11T06:06:22.925Z,101147.66
2022-09-11T06:09:25.700Z,101149.56
2022-09-11T06:12:28.349Z,101151.22
2022-09-11T06:15:46.117Z,101158.09
2022-09-11T06:18:50.409Z,101158.38
2022-09-11T06:21:54.434Z,101159.50
2022-09-11T06:24:57.036Z,101159.47
2022-09-11T06:27:59.732Z,101165.28
2022-09-11T06:31:03.292Z,101165.56
2022-09-11T06:34:05.991Z,101174.66
2022-09-11T06:37:10.123Z,101181.88
2022-09-11T06:40:13.237Z,101179.91
2022-09-11T06:43:16.137Z,101175.41
2022-09-11T06:46:20.597Z,101171.22
2022-09-11T06:49:23.694Z,101178.09
2022-09-11T06:52:28.088Z,101172.47
2022-09-11T06:55:31.672Z,101182.16
2022-09-11T06:58:34.677Z,101178.59
2022-09-11T07:01:39.798Z,101181.13
2022-09-11T07:04:42.525Z,101179.09
2022-09-11T07:07:48.605Z,101181.88
2022-09-11T07:10:51.300Z,101189.94
2022-09-11T07:13:54.812Z,101180.88
2022-09-11T07:16:57.421Z,101180.00
2022-09-11T07:20:00.122Z,101178.03
2022-09-11T07:23:04.044Z,101177.53
2022-09-11T07:26:08.945Z,101176.28
2022-09-11T07:29:12.816Z,101187.31
2022-09-11T07:32:15.603Z,101193.69
2022-09-11T07:35:21.829Z,101188.09
2022-09-11T07:38:25.758Z,101192.97
2022-09-11T07:41:29.590Z,101195.97
2022-09-11T07:44:32.160Z,101199.00
2022-09-11T07:47:34.788Z,101191.75
2022-09-11T07:50:37.331Z,101202.16
2022-09-11T07:53:43.159Z,101202.06
2022-09-11T07:56:45.799Z,101203.44
2022-09-11T07:59:48.403Z,101207.06
2022-09-11T08:02:51.079Z,101197.53
2022-09-11T08:05:59.360Z,101209.25
2022-09-11T08:09:06.214Z,101216.41
2022-09-11T08:12:09.126Z,101214.94
2022-09-11T08:15:11.744Z,101223.16
2022-09-11T08:18:14.716Z,101217.97
2022-09-11T08:21:17.568Z,101227.75
2022-09-11T08:24:21.650Z,101236.28
2022-09-11T08:27:24.235Z,101230.16
2022-09-11T08:30:26.932Z,101234.97
2022-09-11T08:33:29.627Z,101234.84
2022-09-11T08:36:32.235Z,101236.06
2022-09-11T08:39:36.973Z,101237.72
2022-09-11T08:42:41.854Z,101236.19
2022-09-11T08:45:45.179Z,101243.97
2022-09-11T08:48:55.731Z,101239.78
2022-09-11T08:52:02.652Z,101244.66
2022-09-11T08:55:12.993Z,101245.25
2022-09-11T08:58:22.094Z,101234.19
2022-09-11T09:01:29.136Z,101244.09
2022-09-11T09:04:45.594Z,101239.81
2022-09-11T09:08:02.382Z,101241.41
2022-09-11T09:11:15.870Z,101243.22
2022-09-11T09:14:33.060Z,101242.56
2022-09-11T09:17:42.539Z,101247.28
2022-09-11T09:20:50.632Z,101250.06
2022-09-11T09:23:56.582Z,101254.22
2022-09-11T09:27:05.037Z,101249.34
2022-09-11T09:30:16.264Z,101251.50
2022-09-11T09:33:30.915Z,101252.44
2022-09-11T09:36:37.639Z,101253.44
2022-09-11T09:39:41.064Z,101245.06
2022-09-11T09:42:59.434Z,101250.38
2022-09-11T09:46:16.762Z,101251.78
2022-09-11T09:49:23.226Z,101256.97
2022-09-11T09:52:28.290Z,101261.00
2022-09-11T09:55:31.512Z,101257.63
2022-09-11T09:58:41.785Z,101264.09
2022-09-11T10:01:47.240Z,101261.31
2022-09-11T10:05:08.702Z,101257.47
2022-09-11T10:08:29.171Z,101258.06
2022-09-11T10:11:32.387Z,101262.09
2022-09-11T10:14:51.639Z,101265.00
2022-09-11T10:17:59.994Z,101267.88
2022-09-11T10:21:17.174Z,101269.00
2022-09-11T10:24:23.540Z,101273.56
2022-09-11T10:27:29.031Z,101264.28
2022-09-11T10:30:36.112Z,101265.69
2022-09-11T10:33:41.062Z,101270.03
2022-09-11T10:36:53.751Z,101270.41
2022-09-11T10:40:06.704Z,101274.63
2022-09-11T10:43:24.677Z,101274.38
2022-09-11T10:46:39.557Z,101286.47
2022-09-11T10:49:43.375Z,101284.94
2022-09-11T10:52:50.966Z,101281.75
2022-09-11T10:56:00.473Z,101276.06
2022-09-11T10:59:11.435Z,101274.47
2022-09-11T11:02:31.648Z,101278.47
2022-09-11T11:05:45.410Z,101264.44
2022-09-11T11:09:21.140Z,101280.31
2022-09-11T11:12:40.341Z,101275.78
2022-09-11T11:15:57.720Z,101280.47
2022-09-11T11:19:18.845Z,101288.56
2022-09-11T11:22:36.814Z,101281.91
2022-09-11T11:25:47.985Z,101276.72
2022-09-11T11:29:09.052Z,101279.94
2022-09-11T11:32:27.841Z,101277.69
2022-09-11T11:35:41.947Z,101276.56
2022-09-11T11:38:52.858Z,101277.31
2022-09-11T11:42:07.186Z,101276.56
2022-09-11T11:45:17.888Z,101282.78
2022-09-11T11:48:26.624Z,101282.44
2022-09-11T11:51:35.858Z,101285.47
2022-09-11T11:54:42.969Z,101295.16
2022-09-11T11:57:55.284Z,101279.41
2022-09-11T12:01:02.367Z,101280.75
2022-09-11T12:04:19.084Z,101276.69
2022-09-11T12:07:26.296Z,101274.84
2022-09-11T12:10:33.303Z,101282.91
2022-09-11T12:13:42.856Z,101289.97
2022-09-11T12:16:48.665Z,101290.81
2022-09-11T12:20:31.841Z,101293.50
2022-09-11T12:23:56.712Z,101297.66
2022-09-11T12:27:48.776Z,101291.97
2022-09-11T12:31:07.234Z,101300.50
2022-09-11T12:34:17.369Z,101304.97
2022-09-11T12:37:28.509Z,101300.13
2022-09-11T12:40:37.619Z,101299.63
2022-09-11T12:43:49.071Z,101304.50
2022-09-11T12:47:18.603Z,101302.28
2022-09-11T12:50:25.772Z,101313.84
2022-09-11T12:53:32.478Z,101298.78
2022-09-11T12:56:36.031Z,101304.66
2022-09-11T12:59:41.465Z,101296.81
2022-09-11T13:02:51.842Z,101291.88
2022-09-11T13:05:56.435Z,101284.34
2022-09-11T13:09:02.191Z,101278.84
2022-09-11T13:12:48.899Z,101279.16
2022-09-11T13:15:53.060Z,101283.91
2022-09-11T13:19:02.994Z,101288.03
2022-09-11T13:22:22.159Z,101285.03
2022-09-11T13:25:26.607Z,101278.75
2022-09-11T13:28:31.774Z,101276.66
2022-09-11T13:31:36.156Z,101284.13
2022-09-11T13:34:44.456Z,101284.56
2022-09-11T13:37:59.584Z,101286.22
2022-09-11T13:41:06.142Z,101292.94
2022-09-11T13:44:11.965Z,101276.31
2022-09-11T13:47:20.171Z,101277.38
2022-09-11T13:50:24.405Z,101284.19
2022-09-11T13:53:28.400Z,101278.16
2022-09-11T13:56:45.301Z,101282.91
2022-09-11T13:59:50.148Z,101280.06
2022-09-11T14:02:52.883Z,101277.66
2022-09-11T14:06:00.009Z,101277.53
2022-09-11T14:09:03.674Z,101281.72
2022-09-11T14:12:07.586Z,101273.88
2022-09-11T14:15:20.405Z,101270.00
2022-09-11T14:18:29.745Z,101279.00
2022-09-11T14:21:35.400Z,101274.25
2022-09-11T14:24:38.721Z,101277.91
2022-09-11T14:27:44.709Z,101274.34
2022-09-11T14:31:06.698Z,101274.16
2022-09-11T14:34:17.786Z,101282.63
2022-09-11T14:37:22.803Z,101277.38
2022-09-11T14:40:25.453Z,101277.31
2022-09-11T14:43:32.764Z,101282.63
2022-09-11T14:46:35.398Z,101290.72
2022-09-11T14:49:38.115Z,101273.78
2022-09-11T14:52:42.723Z,101280.59
2022-09-11T14:55:45.346Z,101287.00
2022-09-11T14:58:48.786Z,101285.03
2022-09-11T15:01:52.549Z,101294.59
2022-09-11T15:04:57.487Z,101296.56
2022-09-11T15:08:01.818Z,101299.09
2022-09-11T15:11:04.431Z,101293.22
2022-09-11T15:14:20.777Z,101299.91
2022-09-11T15:17:31.857Z,101289.38
2022-09-11T15:20:34.853Z,101297.88
2022-09-11T15:23:39.062Z,101294.31
2022-09-11T15:26:41.891Z,101293.84
2022-09-11T15:29:45.380Z,101294.03
2022-09-11T15:32:48.596Z,101288.94
2022-09-11T15:35:51.946Z,101299.22
2022-09-11T15:38:56.193Z,101300.66
2022-09-11T15:45:22.646Z,101293.34
2022-09-11T15:48:26.811Z,101299.00
2022-09-11T15:51:29.921Z,101303.13
2022-09-11T15:54:34.035Z,101294.78
2022-09-11T15:57:36.737Z,101292.13
2022-09-11T16:00:39.904Z,101296.66
2022-09-11T16:03:42.571Z,101293.16
2022-09-11T16:06:47.671Z,101292.03
2022-09-11T16:09:51.741Z,101299.25
2022-09-11T16:12:58.705Z,101296.47
2022-09-11T16:16:04.009Z,101293.03
2022-09-11T16:19:06.784Z,101289.47
2022-09-11T16:22:09.929Z,101290.09
2022-09-11T16:25:13.991Z,101285.88
2022-09-11T16:28:16.525Z,101285.66
2022-09-11T16:31:19.288Z,101290.56
2022-09-11T16:34:21.870Z,101286.66
2022-09-11T16:37:24.656Z,101289.34
2022-09-11T16:40:28.571Z,101286.66
2022-09-11T16:43:31.688Z,101288.06
2022-09-11T16:46:34.541Z,101281.28
2022-09-11T16:50:03.385Z,101283.31
2022-09-11T16:53:00.194Z,101278.47
2022-09-11T16:56:08.185Z,101281.56
2022-09-11T16:59:10.995Z,101288.53
2022-09-11T17:02:13.586Z,101291.06
2022-09-11T17:05:18.048Z,101293.59
2022-09-11T17:08:30.962Z,101293.69
2022-09-11T17:11:34.953Z,101304.25
2022-09-11T17:14:37.511Z,101302.03
2022-09-11T17:17:41.361Z,101294.59
2022-09-11T17:20:44.502Z,101299.34
2022-09-11T17:23:47.272Z,101301.88
2022-09-11T17:26:51.182Z,101301.31
2022-09-11T17:29:53.959Z,101302.16
2022-09-11T17:32:57.299Z,101298.81
2022-09-11T17:36:01.334Z,101306.69
2022-09-11T17:39:04.958Z,101302.88
2022-09-11T17:42:13.034Z,101301.81
2022-09-11T17:45:16.547Z,101307.41
2022-09-11T17:48:19.362Z,101310.72
2022-09-11T17:51:24.909Z,101310.16
2022-09-11T17:54:28.474Z,101308.81
2022-09-11T17:57:32.838Z,101307.81
2022-09-11T18:00:35.696Z,101309.50
2022-09-11T18:03:38.590Z,101315.34
2022-09-11T18:06:42.607Z,101310.66
2022-09-11T18:09:45.894Z,101310.75
2022-09-11T18:12:49.965Z,101309.75
2022-09-11T18:15:52.533Z,101318.13
2022-09-11T18:18:55.484Z,101320.91
2022-09-11T18:21:59.745Z,101316.00
2022-09-11T18:25:02.398Z,101319.88
2022-09-11T18:28:07.037Z,101322.09
2022-09-11T18:31:09.933Z,101323.50
2022-09-11T18:34:15.045Z,101331.53
2022-09-11T18:37:18.273Z,101326.88
2022-09-11T18:40:20.917Z,101328.84
2022-09-11T18:43:25.110Z,101336.63
2022-09-11T18:46:28.079Z,101337.50
2022-09-11T18:49:30.836Z,101334.72
2022-09-11T18:52:33.627Z,101339.75
2022-09-11T18:55:37.280Z,101333.91
2022-09-11T18:58:41.804Z,101341.16
2022-09-11T19:01:44.721Z,101341.72
2022-09-11T19:04:47.333Z,101355.88
2022-09-11T19:07:50.380Z,101352.28
2022-09-11T19:10:53.173Z,101355.91
2022-09-11T19:14:03.284Z,101360.13
2022-09-11T19:17:05.866Z,101358.72
2022-09-11T19:20:11.178Z,101367.91
2022-09-11T19:23:13.767Z,101363.47
2022-09-11T19:26:18.188Z,101374.50
2022-09-11T19:29:22.605Z,101372.31
2022-09-11T19:32:25.520Z,101373.97
2022-09-11T19:35:28.073Z,101371.22
2022-09-11T19:38:32.398Z,101378.41
2022-09-11T19:41:37.673Z,101379.25
2022-09-11T19:44:42.279Z,101382.56
2022-09-11T19:47:47.999Z,101389.47
2022-09-11T19:50:50.779Z,101390.59
2022-09-11T19:53:55.965Z,101387.53
2022-09-11T19:57:00.279Z,101387.53
2022-09-11T20:00:05.723Z,101394.16
2022-09-11T20:03:10.470Z,101395.81
2022-09-11T20:06:16.949Z,101388.91
2022-09-11T20:09:31.001Z,101395.56
2022-09-11T20:12:37.060Z,101397.50
2022-09-11T20:15:42.867Z,101392.22
2022-09-11T20:18:45.663Z,101385.88
2022-09-11T20:21:48.397Z,101390.53
2022-09-11T20:24:51.125Z,101397.41
2022-09-11T20:27:53.850Z,101399.88
2022-09-11T20:30:57.870Z,101399.31
2022-09-11T20:34:01.051Z,101396.00
2022-09-11T20:37:08.148Z,101396.03
2022-09-11T20:40:13.206Z,101398.50
2022-09-11T20:43:15.938Z,101403.75
2022-09-11T20:46:20.110Z,101388.59
2022-09-11T20:49:22.680Z,101396.91
2022-09-11T20:52:25.272Z,101398.84
2022-09-11T20:55:28.016Z,101395.75
2022-09-11T20:58:30.764Z,101406.00
2022-09-11T21:01:35.900Z,101391.06
2022-09-11T21:04:39.174Z,101393.59
2022-09-11T21:07:42.033Z,101395.75
2022-09-11T21:10:44.671Z,101396.31
2022-09-11T21:13:47.594Z,101402.69
2022-09-11T21:16:53.056Z,101399.31
2022-09-11T21:19:57.499Z,101400.41
2022-09-11T21:23:00.297Z,101399.91
2022-09-11T21:26:03.435Z,101395.19
2022-09-11T21:29:08.222Z,101397.44
2022-09-11T21:32:12.406Z,101392.19
2022-09-11T21:35:15.087Z,101400.50
2022-09-11T21:38:17.760Z,101395.50
2022-09-11T21:41:20.456Z,101403.25
2022-09-11T21:44:23.151Z,101402.97
2022-09-11T21:47:27.067Z,101410.69
2022-09-11T21:50:29.972Z,101407.66
2022-09-11T21:53:32.606Z,101397.66
2022-09-11T21:56:35.648Z,101393.50
2022-09-11T21:59:38.314Z,101392.94
2022-09-11T22:02:42.395Z,101389.38
2022-09-11T22:05:47.637Z,101393.81
2022-09-11T22:08:50.793Z,101399.34
2022-09-11T22:11:55.732Z,101400.72
2022-09-11T22:15:02.182Z,101395.22
2022-09-11T22:18:06.289Z,101391.91
2022-09-11T22:21:10.197Z,101401.63
2022-09-11T22:24:12.751Z,101400.22
2022-09-11T22:27:15.515Z,101402.72
2022-09-11T22:30:18.298Z,101400.78
2022-09-11T22:33:22.842Z,101398.31
2022-09-11T22:36:28.322Z,101398.59
2022-09-11T22:39:31.847Z,101395.53
2022-09-11T22:42:34.527Z,101401.91
2022-09-11T22:45:37.467Z,101395.81
2022-09-11T22:48:44.401Z,101393.84
2022-09-11T22:51:47.112Z,101400.50
2022-09-11T22:54:49.715Z,101396.06
2022-09-11T22:57:52.863Z,101399.13
2022-09-11T23:00:56.502Z,101398.56
2022-09-11T23:04:00.615Z,101395.00
2022-09-11T23:07:17.256Z,101398.59
2022-09-11T23:10:24.254Z,101393.34
2022-09-11T23:13:27.259Z,101398.31
2022-09-11T23:16:30.897Z,101389.47
2022-09-11T23:19:35.940Z,101390.00
2022-09-11T23:22:38.796Z,101390.59
2022-09-11T23:25:43.090Z,101380.34
2022-09-11T23:28:46.540Z,101388.91
2022-09-11T23:31:49.251Z,101393.63
2022-09-11T23:34:54.353Z,101384.50
2022-09-11T23:37:56.911Z,101385.59
2022-09-11T23:40:59.743Z,101381.44
2022-09-11T23:44:03.514Z,101381.19
2022-09-11T23:47:06.358Z,101381.19
2022-09-11T23:50:10.810Z,101379.78
2022-09-11T23:53:13.476Z,101382.84
2022-09-11T23:56:16.589Z,101385.06
2022-09-11T23:59:19.433Z,101383.94
